Terminal Aerodrome Forecast
Issued by NWS

Home | Current Version | Previous Version | Text Only | Print | Product List | Glossary On
Versions: 1 2 3 4 5 6 7 8 9 10 11 12 13 14 15 16 17 18 19
000
FTUS46 KMTR 012300
TAFOAK
TAF
KOAK 012320Z 0200/0306 29007KT P6SM FEW010 BKN200
     FM021000 VRB03KT P6SM BKN010
     FM021830 28006KT P6SM SCT012
     FM022100 28009KT P6SM FEW015 BKN150
     FM030400 30005KT P6SM FEW010 BKN200=

USA.gov is the U.S. government's official web portal to all federal, state and local government web resources and services.